sensor_id;sensor_type;location;lat;lon;timestamp;temperature;humidity
56103;DHT22;41970;48.774;9.280;2023-08-07T00:00:56;14.20;99.90
56103;DHT22;41970;48.774;9.280;2023-08-07T00:03:22;14.30;99.90
56103;DHT22;41970;48.774;9.280;2023-08-07T00:05:48;14.20;99.90
56103;DHT22;41970;48.774;9.280;2023-08-07T00:08:15;14.20;99.90
56103;DHT22;41970;48.774;9.280;2023-08-07T00:10:41;14.20;99.90
56103;DHT22;41970;48.774;9.280;2023-08-07T00:13:06;14.20;99.90
56103;DHT22;41970;48.774;9.280;2023-08-07T00:15:32;14.20;99.90
56103;DHT22;41970;48.774;9.280;2023-08-07T00:18:01;14.20;99.90
56103;DHT22;41970;48.774;9.280;2023-08-07T00:20:26;14.20;99.90
56103;DHT22;41970;48.774;9.280;2023-08-07T00:22:52;14.20;99.90
56103;DHT22;41970;48.774;9.280;2023-08-07T00:25:18;14.20;99.90
56103;DHT22;41970;48.774;9.280;2023-08-07T00:27:44;14.20;99.90
56103;DHT22;41970;48.774;9.280;2023-08-07T00:30:11;14.30;99.90
56103;DHT22;41970;48.774;9.280;2023-08-07T00:32:37;14.30;99.90
56103;DHT22;41970;48.774;9.280;2023-08-07T00:35:03;14.30;99.90
56103;DHT22;41970;48.774;9.280;2023-08-07T00:37:30;14.40;99.90
56103;DHT22;41970;48.774;9.280;2023-08-07T00:39:56;14.40;99.90
56103;DHT22;41970;48.774;9.280;2023-08-07T00:42:22;14.50;99.90
56103;DHT22;41970;48.774;9.280;2023-08-07T00:44:47;14.50;99.90
56103;DHT22;41970;48.774;9.280;2023-08-07T00:47:13;14.40;99.90
56103;DHT22;41970;48.774;9.280;2023-08-07T00:49:39;14.40;99.90
56103;DHT22;41970;48.774;9.280;2023-08-07T00:52:06;14.40;99.90
56103;DHT22;41970;48.774;9.280;2023-08-07T00:54:32;14.40;99.90
56103;DHT22;41970;48.774;9.280;2023-08-07T00:57:08;14.40;99.90
56103;DHT22;41970;48.774;9.280;2023-08-07T00:59:35;14.40;99.90
56103;DHT22;41970;48.774;9.280;2023-08-07T01:02:01;14.30;99.90
56103;DHT22;41970;48.774;9.280;2023-08-07T01:04:26;14.20;99.90
56103;DHT22;41970;48.774;9.280;2023-08-07T01:06:52;14.20;99.90
56103;DHT22;41970;48.774;9.280;2023-08-07T01:09:18;14.20;99.90
56103;DHT22;41970;48.774;9.280;2023-08-07T01:11:48;14.20;99.90
56103;DHT22;41970;48.774;9.280;2023-08-07T01:19:34;14.10;99.90
56103;DHT22;41970;48.774;9.280;2023-08-07T01:22:16;14.10;99.90
56103;DHT22;41970;48.774;9.280;2023-08-07T01:24:44;14.10;99.90
56103;DHT22;41970;48.774;9.280;2023-08-07T01:28:16;14.10;99.90
56103;DHT22;41970;48.774;9.280;2023-08-07T01:30:20;14.10;99.90
56103;DHT22;41970;48.774;9.280;2023-08-07T01:35:43;14.20;99.90
56103;DHT22;41970;48.774;9.280;2023-08-07T01:38:11;14.20;99.90
56103;DHT22;41970;48.774;9.280;2023-08-07T01:40:39;14.20;99.90
56103;DHT22;41970;48.774;9.280;2023-08-07T01:43:05;14.10;99.90
56103;DHT22;41970;48.774;9.280;2023-08-07T01:45:31;14.10;99.90
56103;DHT22;41970;48.774;9.280;2023-08-07T01:47:57;14.10;99.90
56103;DHT22;41970;48.774;9.280;2023-08-07T01:50:23;14.10;99.90
56103;DHT22;41970;48.774;9.280;2023-08-07T01:52:50;14.10;99.90
56103;DHT22;41970;48.774;9.280;2023-08-07T01:55:17;14.10;99.90
56103;DHT22;41970;48.774;9.280;2023-08-07T01:57:44;14.10;99.90
56103;DHT22;41970;48.774;9.280;2023-08-07T02:00:10;14.10;99.90
56103;DHT22;41970;48.774;9.280;2023-08-07T02:02:37;14.10;99.90
56103;DHT22;41970;48.774;9.280;2023-08-07T02:05:03;14.20;99.90
56103;DHT22;41970;48.774;9.280;2023-08-07T02:07:30;14.20;99.90
56103;DHT22;41970;48.774;9.280;2023-08-07T02:09:56;14.10;99.90
56103;DHT22;41970;48.774;9.280;2023-08-07T02:12:22;14.10;99.90
56103;DHT22;41970;48.774;9.280;2023-08-07T02:14:48;14.20;99.90
56103;DHT22;41970;48.774;9.280;2023-08-07T02:17:14;14.20;99.90
56103;DHT22;41970;48.774;9.280;2023-08-07T02:19:40;14.20;99.90
56103;DHT22;41970;48.774;9.280;2023-08-07T02:22:06;14.20;99.90
56103;DHT22;41970;48.774;9.280;2023-08-07T02:24:32;14.20;99.90
56103;DHT22;41970;48.774;9.280;2023-08-07T02:26:58;14.10;99.90
56103;DHT22;41970;48.774;9.280;2023-08-07T02:29:23;14.10;99.90
56103;DHT22;41970;48.774;9.280;2023-08-07T02:31:49;14.10;99.90
56103;DHT22;41970;48.774;9.280;2023-08-07T02:34:15;14.10;99.90
56103;DHT22;41970;48.774;9.280;2023-08-07T02:36:41;14.00;99.90
56103;DHT22;41970;48.774;9.280;2023-08-07T02:39:07;14.10;99.90
56103;DHT22;41970;48.774;9.280;2023-08-07T02:41:32;14.10;99.90
56103;DHT22;41970;48.774;9.280;2023-08-07T02:43:58;14.10;99.90
56103;DHT22;41970;48.774;9.280;2023-08-07T02:46:24;14.10;99.90
56103;DHT22;41970;48.774;9.280;2023-08-07T02:48:50;14.00;99.90
56103;DHT22;41970;48.774;9.280;2023-08-07T02:51:16;14.00;99.90
56103;DHT22;41970;48.774;9.280;2023-08-07T02:53:42;14.00;99.90
56103;DHT22;41970;48.774;9.280;2023-08-07T02:56:09;13.90;99.90
56103;DHT22;41970;48.774;9.280;2023-08-07T02:58:36;13.90;99.90
56103;DHT22;41970;48.774;9.280;2023-08-07T03:01:05;13.90;99.90
56103;DHT22;41970;48.774;9.280;2023-08-07T03:03:34;13.90;99.90
56103;DHT22;41970;48.774;9.280;2023-08-07T03:06:00;13.90;99.90
56103;DHT22;41970;48.774;9.280;2023-08-07T03:08:26;13.90;99.90
56103;DHT22;41970;48.774;9.280;2023-08-07T03:10:53;13.80;99.90
56103;DHT22;41970;48.774;9.280;2023-08-07T03:13:19;13.70;99.90
56103;DHT22;41970;48.774;9.280;2023-08-07T03:15:45;13.70;99.90
56103;DHT22;41970;48.774;9.280;2023-08-07T03:18:11;13.80;99.90
56103;DHT22;41970;48.774;9.280;2023-08-07T03:20:37;13.80;99.90
56103;DHT22;41970;48.774;9.280;2023-08-07T03:23:03;13.80;99.90
56103;DHT22;41970;48.774;9.280;2023-08-07T03:25:29;13.80;99.90
56103;DHT22;41970;48.774;9.280;2023-08-07T03:27:55;13.80;99.90
56103;DHT22;41970;48.774;9.280;2023-08-07T03:30:21;13.80;99.90
56103;DHT22;41970;48.774;9.280;2023-08-07T03:32:46;13.80;99.90
56103;DHT22;41970;48.774;9.280;2023-08-07T03:35:12;13.80;99.90
56103;DHT22;41970;48.774;9.280;2023-08-07T03:37:38;13.80;99.90
56103;DHT22;41970;48.774;9.280;2023-08-07T03:40:04;13.80;99.90
56103;DHT22;41970;48.774;9.280;2023-08-07T03:42:30;13.90;99.90
56103;DHT22;41970;48.774;9.280;2023-08-07T03:44:56;13.90;99.90
56103;DHT22;41970;48.774;9.280;2023-08-07T03:47:23;13.90;99.90
56103;DHT22;41970;48.774;9.280;2023-08-07T03:49:49;14.00;99.90
56103;DHT22;41970;48.774;9.280;2023-08-07T03:52:15;14.00;99.90
56103;DHT22;41970;48.774;9.280;2023-08-07T03:54:43;14.00;99.90
56103;DHT22;41970;48.774;9.280;2023-08-07T03:57:09;14.00;99.90
56103;DHT22;41970;48.774;9.280;2023-08-07T03:59:36;14.10;99.90
56103;DHT22;41970;48.774;9.280;2023-08-07T04:02:02;14.00;99.90
56103;DHT22;41970;48.774;9.280;2023-08-07T04:04:28;14.00;99.90
56103;DHT22;41970;48.774;9.280;2023-08-07T04:06:54;14.00;99.90
56103;DHT22;41970;48.774;9.280;2023-08-07T04:09:20;14.00;99.90
56103;DHT22;41970;48.774;9.280;2023-08-07T04:11:46;14.10;99.90
56103;DHT22;41970;48.774;9.280;2023-08-07T04:14:12;14.10;99.90
56103;DHT22;41970;48.774;9.280;2023-08-07T04:16:37;14.00;99.90
56103;DHT22;41970;48.774;9.280;2023-08-07T04:19:03;14.00;99.90
56103;DHT22;41970;48.774;9.280;2023-08-07T04:21:32;14.10;99.90
56103;DHT22;41970;48.774;9.280;2023-08-07T04:23:58;14.20;99.90
56103;DHT22;41970;48.774;9.280;2023-08-07T04:26:26;14.20;99.90
56103;DHT22;41970;48.774;9.280;2023-08-07T04:28:52;14.20;99.90
56103;DHT22;41970;48.774;9.280;2023-08-07T04:31:18;14.20;99.90
56103;DHT22;41970;48.774;9.280;2023-08-07T04:33:44;14.30;99.90
56103;DHT22;41970;48.774;9.280;2023-08-07T04:36:10;14.30;99.90
56103;DHT22;41970;48.774;9.280;2023-08-07T04:38:36;14.20;99.90
56103;DHT22;41970;48.774;9.280;2023-08-07T04:41:02;14.20;99.90
56103;DHT22;41970;48.774;9.280;2023-08-07T04:43:29;14.20;99.90
56103;DHT22;41970;48.774;9.280;2023-08-07T04:45:54;14.30;99.90
56103;DHT22;41970;48.774;9.280;2023-08-07T04:48:20;14.30;99.90
56103;DHT22;41970;48.774;9.280;2023-08-07T04:50:48;14.20;99.90
56103;DHT22;41970;48.774;9.280;2023-08-07T04:53:14;14.20;99.90
56103;DHT22;41970;48.774;9.280;2023-08-07T04:55:40;14.30;99.90
56103;DHT22;41970;48.774;9.280;2023-08-07T04:58:07;14.30;99.90
56103;DHT22;41970;48.774;9.280;2023-08-07T05:00:33;14.30;99.90
56103;DHT22;41970;48.774;9.280;2023-08-07T05:02:59;14.30;99.90
56103;DHT22;41970;48.774;9.280;2023-08-07T05:05:24;14.30;99.90
56103;DHT22;41970;48.774;9.280;2023-08-07T05:07:50;14.40;99.90
56103;DHT22;41970;48.774;9.280;2023-08-07T05:10:18;14.30;99.90
56103;DHT22;41970;48.774;9.280;2023-08-07T05:12:43;14.30;99.90
56103;DHT22;41970;48.774;9.280;2023-08-07T05:15:09;14.30;99.90
56103;DHT22;41970;48.774;9.280;2023-08-07T05:17:35;14.40;99.90
56103;DHT22;41970;48.774;9.280;2023-08-07T05:20:01;14.40;99.90
56103;DHT22;41970;48.774;9.280;2023-08-07T05:22:28;14.40;99.90
56103;DHT22;41970;48.774;9.280;2023-08-07T05:24:54;14.40;99.90
56103;DHT22;41970;48.774;9.280;2023-08-07T05:27:19;14.30;99.90
56103;DHT22;41970;48.774;9.280;2023-08-07T05:29:45;14.40;99.90
56103;DHT22;41970;48.774;9.280;2023-08-07T05:32:12;14.40;99.90
56103;DHT22;41970;48.774;9.280;2023-08-07T05:34:38;14.40;99.90
56103;DHT22;41970;48.774;9.280;2023-08-07T05:37:05;14.40;99.90
56103;DHT22;41970;48.774;9.280;2023-08-07T05:39:32;14.50;99.90
56103;DHT22;41970;48.774;9.280;2023-08-07T05:41:58;14.60;99.90
56103;DHT22;41970;48.774;9.280;2023-08-07T05:44:24;14.60;99.90
56103;DHT22;41970;48.774;9.280;2023-08-07T05:46:50;14.60;99.90
56103;DHT22;41970;48.774;9.280;2023-08-07T05:49:16;14.60;99.90
56103;DHT22;41970;48.774;9.280;2023-08-07T05:51:43;14.60;99.90
56103;DHT22;41970;48.774;9.280;2023-08-07T05:54:09;14.70;99.90
56103;DHT22;41970;48.774;9.280;2023-08-07T05:56:37;14.70;99.90
56103;DHT22;41970;48.774;9.280;2023-08-07T05:59:03;14.80;99.90
56103;DHT22;41970;48.774;9.280;2023-08-07T06:01:29;14.80;99.90
56103;DHT22;41970;48.774;9.280;2023-08-07T06:03:57;14.80;99.90
56103;DHT22;41970;48.774;9.280;2023-08-07T06:06:23;14.80;99.90
56103;DHT22;41970;48.774;9.280;2023-08-07T06:08:49;14.80;99.90
56103;DHT22;41970;48.774;9.280;2023-08-07T06:11:15;14.80;99.90
56103;DHT22;41970;48.774;9.280;2023-08-07T06:13:41;14.80;99.90
56103;DHT22;41970;48.774;9.280;2023-08-07T06:16:07;14.70;99.90
56103;DHT22;41970;48.774;9.280;2023-08-07T06:18:33;14.70;99.90
56103;DHT22;41970;48.774;9.280;2023-08-07T06:21:00;14.70;99.90
56103;DHT22;41970;48.774;9.280;2023-08-07T06:23:26;14.70;99.90
56103;DHT22;41970;48.774;9.280;2023-08-07T06:25:51;14.70;99.90
56103;DHT22;41970;48.774;9.280;2023-08-07T06:28:17;14.60;99.90
56103;DHT22;41970;48.774;9.280;2023-08-07T06:30:43;14.60;99.90
56103;DHT22;41970;48.774;9.280;2023-08-07T06:33:09;14.60;99.90
56103;DHT22;41970;48.774;9.280;2023-08-07T06:35:39;14.70;99.90
56103;DHT22;41970;48.774;9.280;2023-08-07T06:38:05;14.70;99.90
56103;DHT22;41970;48.774;9.280;2023-08-07T06:40:31;14.70;99.90
56103;DHT22;41970;48.774;9.280;2023-08-07T06:42:57;14.70;99.90
56103;DHT22;41970;48.774;9.280;2023-08-07T06:45:23;14.70;99.90
56103;DHT22;41970;48.774;9.280;2023-08-07T06:47:49;14.70;99.90
56103;DHT22;41970;48.774;9.280;2023-08-07T06:50:15;14.70;99.90
56103;DHT22;41970;48.774;9.280;2023-08-07T06:52:40;14.80;99.90
56103;DHT22;41970;48.774;9.280;2023-08-07T06:55:07;14.80;99.90
56103;DHT22;41970;48.774;9.280;2023-08-07T06:57:32;14.90;99.90
56103;DHT22;41970;48.774;9.280;2023-08-07T06:59:58;14.90;99.90
56103;DHT22;41970;48.774;9.280;2023-08-07T07:02:53;15.00;99.90
56103;DHT22;41970;48.774;9.280;2023-08-07T07:05:19;15.00;99.90
56103;DHT22;41970;48.774;9.280;2023-08-07T07:07:45;15.00;99.90
56103;DHT22;41970;48.774;9.280;2023-08-07T07:10:10;15.10;99.90
56103;DHT22;41970;48.774;9.280;2023-08-07T07:12:36;15.10;99.90
56103;DHT22;41970;48.774;9.280;2023-08-07T07:15:02;15.10;99.90
56103;DHT22;41970;48.774;9.280;2023-08-07T07:17:28;15.20;99.90
56103;DHT22;41970;48.774;9.280;2023-08-07T07:19:54;15.30;99.90
56103;DHT22;41970;48.774;9.280;2023-08-07T07:22:22;15.30;99.90
56103;DHT22;41970;48.774;9.280;2023-08-07T07:24:48;15.30;99.90
56103;DHT22;41970;48.774;9.280;2023-08-07T07:27:14;15.40;99.90
56103;DHT22;41970;48.774;9.280;2023-08-07T07:29:40;15.50;99.90
56103;DHT22;41970;48.774;9.280;2023-08-07T07:32:06;15.50;99.90
56103;DHT22;41970;48.774;9.280;2023-08-07T07:34:32;15.50;99.90
56103;DHT22;41970;48.774;9.280;2023-08-07T07:36:59;15.60;99.90
56103;DHT22;41970;48.774;9.280;2023-08-07T07:39:25;15.50;99.90
56103;DHT22;41970;48.774;9.280;2023-08-07T07:41:51;15.50;99.90
56103;DHT22;41970;48.774;9.280;2023-08-07T07:44:16;15.40;99.90
56103;DHT22;41970;48.774;9.280;2023-08-07T07:46:42;15.50;99.90
56103;DHT22;41970;48.774;9.280;2023-08-07T07:49:08;15.60;99.90
56103;DHT22;41970;48.774;9.280;2023-08-07T07:51:34;15.60;99.90
56103;DHT22;41970;48.774;9.280;2023-08-07T07:54:02;15.60;99.90
56103;DHT22;41970;48.774;9.280;2023-08-07T07:56:28;15.70;99.90
56103;DHT22;41970;48.774;9.280;2023-08-07T07:58:54;15.90;99.90
56103;DHT22;41970;48.774;9.280;2023-08-07T08:01:20;16.00;99.90
56103;DHT22;41970;48.774;9.280;2023-08-07T08:03:46;16.10;99.90
56103;DHT22;41970;48.774;9.280;2023-08-07T08:06:12;16.20;99.90
56103;DHT22;41970;48.774;9.280;2023-08-07T08:08:39;16.20;99.90
56103;DHT22;41970;48.774;9.280;2023-08-07T08:11:05;16.10;99.90
56103;DHT22;41970;48.774;9.280;2023-08-07T08:13:31;16.00;99.90
56103;DHT22;41970;48.774;9.280;2023-08-07T08:15:57;16.10;99.90
56103;DHT22;41970;48.774;9.280;2023-08-07T08:18:23;16.00;99.90
56103;DHT22;41970;48.774;9.280;2023-08-07T08:20:49;16.00;99.90
56103;DHT22;41970;48.774;9.280;2023-08-07T08:23:14;15.80;99.90
56103;DHT22;41970;48.774;9.280;2023-08-07T08:25:42;15.80;99.90
56103;DHT22;41970;48.774;9.280;2023-08-07T08:28:08;15.80;99.90
56103;DHT22;41970;48.774;9.280;2023-08-07T08:30:34;15.80;99.90
56103;DHT22;41970;48.774;9.280;2023-08-07T08:33:00;15.80;99.90
56103;DHT22;41970;48.774;9.280;2023-08-07T08:35:25;15.80;99.90
56103;DHT22;41970;48.774;9.280;2023-08-07T08:37:51;15.80;99.90
56103;DHT22;41970;48.774;9.280;2023-08-07T08:40:17;15.70;99.90
56103;DHT22;41970;48.774;9.280;2023-08-07T08:42:45;15.60;99.90
56103;DHT22;41970;48.774;9.280;2023-08-07T08:45:15;15.70;99.90
56103;DHT22;41970;48.774;9.280;2023-08-07T08:47:42;15.80;99.90
56103;DHT22;41970;48.774;9.280;2023-08-07T08:50:11;15.90;99.90
56103;DHT22;41970;48.774;9.280;2023-08-07T08:52:43;15.90;99.90
56103;DHT22;41970;48.774;9.280;2023-08-07T08:55:13;15.90;99.90
56103;DHT22;41970;48.774;9.280;2023-08-07T08:57:39;15.90;99.90
56103;DHT22;41970;48.774;9.280;2023-08-07T09:00:07;15.90;99.90
56103;DHT22;41970;48.774;9.280;2023-08-07T09:02:51;16.00;99.90
56103;DHT22;41970;48.774;9.280;2023-08-07T09:05:19;16.10;99.90
56103;DHT22;41970;48.774;9.280;2023-08-07T09:07:49;16.20;99.90
56103;DHT22;41970;48.774;9.280;2023-08-07T09:10:15;16.20;99.90
56103;DHT22;41970;48.774;9.280;2023-08-07T09:13:03;16.30;99.90
56103;DHT22;41970;48.774;9.280;2023-08-07T09:15:32;16.50;99.80
56103;DHT22;41970;48.774;9.280;2023-08-07T09:17:58;16.70;99.90
56103;DHT22;41970;48.774;9.280;2023-08-07T09:20:25;16.80;99.60
56103;DHT22;41970;48.774;9.280;2023-08-07T09:22:51;16.80;99.90
56103;DHT22;41970;48.774;9.280;2023-08-07T09:25:28;16.90;99.70
56103;DHT22;41970;48.774;9.280;2023-08-07T09:27:55;17.10;99.70
56103;DHT22;41970;48.774;9.280;2023-08-07T09:30:29;17.20;99.90
56103;DHT22;41970;48.774;9.280;2023-08-07T09:32:59;17.20;99.80
56103;DHT22;41970;48.774;9.280;2023-08-07T09:35:26;17.30;99.30
56103;DHT22;41970;48.774;9.280;2023-08-07T09:37:52;17.20;99.00
56103;DHT22;41970;48.774;9.280;2023-08-07T09:40:19;17.20;99.90
56103;DHT22;41970;48.774;9.280;2023-08-07T09:42:45;17.20;99.90
56103;DHT22;41970;48.774;9.280;2023-08-07T09:45:28;17.20;99.90
56103;DHT22;41970;48.774;9.280;2023-08-07T09:48:03;17.30;99.90
56103;DHT22;41970;48.774;9.280;2023-08-07T09:50:30;17.40;99.80
56103;DHT22;41970;48.774;9.280;2023-08-07T09:52:57;17.40;98.70
56103;DHT22;41970;48.774;9.280;2023-08-07T09:55:26;17.20;98.10
56103;DHT22;41970;48.774;9.280;2023-08-07T09:57:53;17.20;97.70
56103;DHT22;41970;48.774;9.280;2023-08-07T10:00:19;17.20;98.10
56103;DHT22;41970;48.774;9.280;2023-08-07T10:02:50;17.20;98.40
56103;DHT22;41970;48.774;9.280;2023-08-07T10:05:17;17.30;98.10
56103;DHT22;41970;48.774;9.280;2023-08-07T10:07:43;17.40;98.70
56103;DHT22;41970;48.774;9.280;2023-08-07T10:10:09;17.50;98.90
56103;DHT22;41970;48.774;9.280;2023-08-07T10:12:36;17.50;98.20
56103;DHT22;41970;48.774;9.280;2023-08-07T10:15:03;17.60;98.00
56103;DHT22;41970;48.774;9.280;2023-08-07T10:17:30;17.60;98.30
56103;DHT22;41970;48.774;9.280;2023-08-07T10:19:57;17.70;98.50
56103;DHT22;41970;48.774;9.280;2023-08-07T10:22:25;17.70;98.50
56103;DHT22;41970;48.774;9.280;2023-08-07T10:24:54;17.80;98.40
56103;DHT22;41970;48.774;9.280;2023-08-07T10:27:23;17.90;97.50
56103;DHT22;41970;48.774;9.280;2023-08-07T10:29:52;18.00;98.10
56103;DHT22;41970;48.774;9.280;2023-08-07T10:32:20;18.20;96.80
56103;DHT22;41970;48.774;9.280;2023-08-07T10:34:50;18.20;97.10
56103;DHT22;41970;48.774;9.280;2023-08-07T10:40:07;18.20;97.10
56103;DHT22;41970;48.774;9.280;2023-08-07T10:42:55;18.10;96.60
56103;DHT22;41970;48.774;9.280;2023-08-07T10:45:23;18.00;96.60
56103;DHT22;41970;48.774;9.280;2023-08-07T10:48:10;18.00;96.70
56103;DHT22;41970;48.774;9.280;2023-08-07T10:53:36;17.80;96.60
56103;DHT22;41970;48.774;9.280;2023-08-07T10:56:08;17.70;96.10
56103;DHT22;41970;48.774;9.280;2023-08-07T10:58:37;17.60;96.60
56103;DHT22;41970;48.774;9.280;2023-08-07T11:01:24;17.60;96.40
56103;DHT22;41970;48.774;9.280;2023-08-07T11:06:22;17.50;97.30
56103;DHT22;41970;48.774;9.280;2023-08-07T11:08:50;17.40;96.90
56103;DHT22;41970;48.774;9.280;2023-08-07T11:11:16;17.40;97.10
56103;DHT22;41970;48.774;9.280;2023-08-07T11:13:42;17.40;97.50
56103;DHT22;41970;48.774;9.280;2023-08-07T11:16:08;17.50;97.30
56103;DHT22;41970;48.774;9.280;2023-08-07T11:18:34;17.60;97.60
56103;DHT22;41970;48.774;9.280;2023-08-07T11:21:01;17.70;96.10
56103;DHT22;41970;48.774;9.280;2023-08-07T11:23:28;17.70;96.80
56103;DHT22;41970;48.774;9.280;2023-08-07T11:25:54;17.70;96.50
56103;DHT22;41970;48.774;9.280;2023-08-07T11:28:22;17.60;96.40
56103;DHT22;41970;48.774;9.280;2023-08-07T11:30:50;17.60;96.10
56103;DHT22;41970;48.774;9.280;2023-08-07T11:33:20;17.60;95.80
56103;DHT22;41970;48.774;9.280;2023-08-07T11:35:47;17.50;96.50
56103;DHT22;41970;48.774;9.280;2023-08-07T11:38:28;17.40;96.80
56103;DHT22;41970;48.774;9.280;2023-08-07T11:40:57;17.40;97.20
56103;DHT22;41970;48.774;9.280;2023-08-07T11:43:26;17.40;97.70
56103;DHT22;41970;48.774;9.280;2023-08-07T11:45:52;17.40;97.50
56103;DHT22;41970;48.774;9.280;2023-08-07T11:48:18;17.30;97.30
56103;DHT22;41970;48.774;9.280;2023-08-07T11:50:44;17.40;97.50
56103;DHT22;41970;48.774;9.280;2023-08-07T11:53:10;17.40;97.90
56103;DHT22;41970;48.774;9.280;2023-08-07T11:55:36;17.40;98.40
56103;DHT22;41970;48.774;9.280;2023-08-07T11:58:06;17.30;98.40
56103;DHT22;41970;48.774;9.280;2023-08-07T12:00:32;17.30;99.00
56103;DHT22;41970;48.774;9.280;2023-08-07T12:02:58;17.30;99.30
56103;DHT22;41970;48.774;9.280;2023-08-07T12:05:24;17.20;98.60
56103;DHT22;41970;48.774;9.280;2023-08-07T12:07:50;17.10;99.00
56103;DHT22;41970;48.774;9.280;2023-08-07T12:10:16;17.10;98.90
56103;DHT22;41970;48.774;9.280;2023-08-07T12:12:43;17.10;99.00
56103;DHT22;41970;48.774;9.280;2023-08-07T12:15:10;17.10;98.70
56103;DHT22;41970;48.774;9.280;2023-08-07T12:17:39;17.10;99.10
56103;DHT22;41970;48.774;9.280;2023-08-07T12:20:06;17.10;99.00
56103;DHT22;41970;48.774;9.280;2023-08-07T12:22:33;17.10;99.50
56103;DHT22;41970;48.774;9.280;2023-08-07T12:25:01;17.10;99.60
56103;DHT22;41970;48.774;9.280;2023-08-07T12:27:30;17.10;99.30
56103;DHT22;41970;48.774;9.280;2023-08-07T12:29:56;17.20;99.60
56103;DHT22;41970;48.774;9.280;2023-08-07T12:32:22;17.20;99.30
56103;DHT22;41970;48.774;9.280;2023-08-07T12:34:48;17.20;99.30
56103;DHT22;41970;48.774;9.280;2023-08-07T12:37:15;17.10;99.70
56103;DHT22;41970;48.774;9.280;2023-08-07T12:39:41;17.20;99.90
56103;DHT22;41970;48.774;9.280;2023-08-07T12:42:07;17.40;99.50
56103;DHT22;41970;48.774;9.280;2023-08-07T12:44:33;17.40;99.90
56103;DHT22;41970;48.774;9.280;2023-08-07T12:46:59;17.40;99.90
56103;DHT22;41970;48.774;9.280;2023-08-07T12:49:25;17.50;99.90
56103;DHT22;41970;48.774;9.280;2023-08-07T12:51:51;17.60;99.70
56103;DHT22;41970;48.774;9.280;2023-08-07T12:54:18;17.70;99.40
56103;DHT22;41970;48.774;9.280;2023-08-07T12:56:44;17.70;99.70
56103;DHT22;41970;48.774;9.280;2023-08-07T12:59:10;17.70;99.90
56103;DHT22;41970;48.774;9.280;2023-08-07T13:01:36;17.80;99.80
56103;DHT22;41970;48.774;9.280;2023-08-07T13:04:01;17.80;99.90
56103;DHT22;41970;48.774;9.280;2023-08-07T13:06:30;17.70;99.90
56103;DHT22;41970;48.774;9.280;2023-08-07T13:08:55;17.80;99.70
56103;DHT22;41970;48.774;9.280;2023-08-07T13:11:21;17.80;99.40
56103;DHT22;41970;48.774;9.280;2023-08-07T13:13:47;17.80;99.00
56103;DHT22;41970;48.774;9.280;2023-08-07T13:16:13;17.80;99.00
56103;DHT22;41970;48.774;9.280;2023-08-07T13:18:39;17.80;98.70
56103;DHT22;41970;48.774;9.280;2023-08-07T13:21:05;17.80;99.00
56103;DHT22;41970;48.774;9.280;2023-08-07T13:23:31;17.80;98.70
56103;DHT22;41970;48.774;9.280;2023-08-07T13:25:56;17.80;98.50
56103;DHT22;41970;48.774;9.280;2023-08-07T13:28:22;17.80;99.00
56103;DHT22;41970;48.774;9.280;2023-08-07T13:30:48;17.90;99.30
56103;DHT22;41970;48.774;9.280;2023-08-07T13:33:15;18.00;99.70
56103;DHT22;41970;48.774;9.280;2023-08-07T13:35:41;18.00;99.90
56103;DHT22;41970;48.774;9.280;2023-08-07T13:38:07;18.00;99.90
56103;DHT22;41970;48.774;9.280;2023-08-07T13:40:34;18.00;99.90
56103;DHT22;41970;48.774;9.280;2023-08-07T13:43:00;18.00;99.90
56103;DHT22;41970;48.774;9.280;2023-08-07T13:45:33;18.10;99.90
56103;DHT22;41970;48.774;9.280;2023-08-07T13:47:58;18.20;99.90
56103;DHT22;41970;48.774;9.280;2023-08-07T13:50:24;18.30;99.90
56103;DHT22;41970;48.774;9.280;2023-08-07T13:52:50;18.40;99.90
56103;DHT22;41970;48.774;9.280;2023-08-07T13:55:16;18.50;99.90
56103;DHT22;41970;48.774;9.280;2023-08-07T13:57:42;18.50;99.60
56103;DHT22;41970;48.774;9.280;2023-08-07T14:00:09;18.60;99.10
56103;DHT22;41970;48.774;9.280;2023-08-07T14:02:36;18.70;99.70
56103;DHT22;41970;48.774;9.280;2023-08-07T14:05:02;18.70;99.60
56103;DHT22;41970;48.774;9.280;2023-08-07T14:07:28;18.70;99.70
56103;DHT22;41970;48.774;9.280;2023-08-07T14:09:54;18.80;99.50
56103;DHT22;41970;48.774;9.280;2023-08-07T14:12:20;18.80;99.70
56103;DHT22;41970;48.774;9.280;2023-08-07T14:14:46;18.80;99.10
56103;DHT22;41970;48.774;9.280;2023-08-07T14:17:12;18.70;98.40
56103;DHT22;41970;48.774;9.280;2023-08-07T14:19:38;18.70;98.20
56103;DHT22;41970;48.774;9.280;2023-08-07T14:22:04;18.70;98.90
56103;DHT22;41970;48.774;9.280;2023-08-07T14:24:29;18.70;97.90
56103;DHT22;41970;48.774;9.280;2023-08-07T14:26:55;18.80;98.30
56103;DHT22;41970;48.774;9.280;2023-08-07T14:29:21;18.90;98.10
56103;DHT22;41970;48.774;9.280;2023-08-07T14:31:47;19.00;98.00
56103;DHT22;41970;48.774;9.280;2023-08-07T14:34:13;19.20;97.90
56103;DHT22;41970;48.774;9.280;2023-08-07T14:36:39;19.20;97.10
56103;DHT22;41970;48.774;9.280;2023-08-07T14:39:06;19.10;96.80
56103;DHT22;41970;48.774;9.280;2023-08-07T14:41:32;19.00;96.90
56103;DHT22;41970;48.774;9.280;2023-08-07T14:43:58;18.90;97.20
56103;DHT22;41970;48.774;9.280;2023-08-07T14:46:24;18.80;96.40
56103;DHT22;41970;48.774;9.280;2023-08-07T14:48:49;18.80;96.80
56103;DHT22;41970;48.774;9.280;2023-08-07T14:51:15;18.70;97.00
56103;DHT22;41970;48.774;9.280;2023-08-07T14:53:41;18.70;97.40
56103;DHT22;41970;48.774;9.280;2023-08-07T14:56:07;18.70;97.10
56103;DHT22;41970;48.774;9.280;2023-08-07T14:58:34;18.70;97.60
56103;DHT22;41970;48.774;9.280;2023-08-07T15:01:00;18.70;97.60
56103;DHT22;41970;48.774;9.280;2023-08-07T15:03:26;18.80;97.40
56103;DHT22;41970;48.774;9.280;2023-08-07T15:05:52;19.00;97.80
56103;DHT22;41970;48.774;9.280;2023-08-07T15:08:18;19.20;97.90
56103;DHT22;41970;48.774;9.280;2023-08-07T15:10:43;19.40;97.50
56103;DHT22;41970;48.774;9.280;2023-08-07T15:13:09;19.40;96.70
56103;DHT22;41970;48.774;9.280;2023-08-07T15:15:35;19.40;97.00
56103;DHT22;41970;48.774;9.280;2023-08-07T15:18:01;19.40;97.10
56103;DHT22;41970;48.774;9.280;2023-08-07T15:20:29;19.30;97.50
56103;DHT22;41970;48.774;9.280;2023-08-07T15:22:56;19.30;97.10
56103;DHT22;41970;48.774;9.280;2023-08-07T15:25:22;19.20;97.30
56103;DHT22;41970;48.774;9.280;2023-08-07T15:27:48;19.20;96.70
56103;DHT22;41970;48.774;9.280;2023-08-07T15:30:14;19.10;96.50
56103;DHT22;41970;48.774;9.280;2023-08-07T15:32:40;19.10;97.00
56103;DHT22;41970;48.774;9.280;2023-08-07T15:35:07;19.00;96.50
56103;DHT22;41970;48.774;9.280;2023-08-07T15:37:33;18.90;96.50
56103;DHT22;41970;48.774;9.280;2023-08-07T15:39:59;18.80;96.20
56103;DHT22;41970;48.774;9.280;2023-08-07T15:42:25;18.70;95.90
56103;DHT22;41970;48.774;9.280;2023-08-07T15:44:50;18.70;96.30